createdAt,value
2019-04-13T00:00:02.101Z,3.81
2019-04-13T00:02:38.220Z,3.88
2019-04-13T00:05:14.436Z,3.91
2019-04-13T00:07:42.142Z,3.92
2019-04-13T00:10:09.823Z,3.89
2019-04-13T00:12:37.713Z,3.93
2019-04-13T00:15:05.837Z,3.96
2019-04-13T00:17:33.479Z,4.03
2019-04-13T00:20:01.143Z,3.92
2019-04-13T00:22:28.787Z,3.93
2019-04-13T00:24:56.431Z,3.95
2019-04-13T00:27:24.085Z,3.96
2019-04-13T00:29:51.743Z,4.03
2019-04-13T00:32:19.388Z,4.14
2019-04-13T00:34:47.044Z,4.01
2019-04-13T00:37:14.691Z,3.97
2019-04-13T00:39:42.393Z,3.98
2019-04-13T00:42:10.159Z,3.95
2019-04-13T00:44:37.925Z,4.02
2019-04-13T00:47:05.640Z,4.04
2019-04-13T00:49:33.288Z,4.07
2019-04-13T00:52:00.987Z,4.06
2019-04-13T00:54:28.651Z,4.10
2019-04-13T00:56:56.303Z,4.01
2019-04-13T00:59:23.959Z,3.96
2019-04-13T01:01:51.599Z,3.95
2019-04-13T01:04:19.248Z,3.97
2019-04-13T01:06:46.907Z,3.85
2019-04-13T01:09:14.571Z,3.82
2019-04-13T01:11:42.246Z,3.82
2019-04-13T01:14:09.999Z,3.86
2019-04-13T01:16:37.653Z,3.76
2019-04-13T01:19:05.303Z,3.76
2019-04-13T01:21:33.552Z,3.80
2019-04-13T01:24:01.239Z,3.90
2019-04-13T01:26:28.888Z,3.87
2019-04-13T01:28:56.541Z,3.77
2019-04-13T01:31:24.196Z,3.70
2019-04-13T01:33:51.839Z,3.80
2019-04-13T01:36:19.506Z,3.84
2019-04-13T01:38:47.154Z,3.85
2019-04-13T01:41:14.811Z,3.85
2019-04-13T01:43:42.463Z,3.80
2019-04-13T01:46:10.119Z,3.80
2019-04-13T01:48:37.767Z,3.81
2019-04-13T01:51:05.421Z,3.83
2019-04-13T01:53:33.079Z,3.82
2019-04-13T01:56:00.810Z,3.82
2019-04-13T01:58:28.535Z,3.82
2019-04-13T02:01:05.227Z,3.79
2019-04-13T02:03:33.359Z,3.88
2019-04-13T02:06:03.480Z,3.87
2019-04-13T02:08:39.519Z,3.80
2019-04-13T02:11:11.255Z,3.67
2019-04-13T02:13:38.905Z,3.61
2019-04-13T02:16:06.559Z,3.74
2019-04-13T02:18:34.209Z,3.73
2019-04-13T02:21:01.896Z,3.70
2019-04-13T02:23:29.597Z,3.59
2019-04-13T02:25:57.267Z,3.69
2019-04-13T02:28:24.930Z,3.58
2019-04-13T02:30:52.588Z,3.59
2019-04-13T02:33:21.866Z,3.60
2019-04-13T02:35:49.615Z,3.61
2019-04-13T02:38:17.292Z,3.64
2019-04-13T02:40:45.024Z,3.58
2019-04-13T02:43:12.675Z,3.58
2019-04-13T02:45:40.327Z,3.71
2019-04-13T02:48:07.997Z,3.44
2019-04-13T02:50:35.649Z,3.27
2019-04-13T02:53:03.297Z,3.43
2019-04-13T02:55:31.014Z,3.50
2019-04-13T02:57:58.797Z,3.32
2019-04-13T03:00:26.453Z,3.32
2019-04-13T03:02:54.103Z,3.61
2019-04-13T03:05:21.779Z,3.58
2019-04-13T03:07:49.476Z,3.55
2019-04-13T03:10:17.133Z,3.59
2019-04-13T03:12:44.787Z,3.65
2019-04-13T03:15:12.439Z,3.53
2019-04-13T03:17:59.129Z,3.44
2019-04-13T03:20:28.887Z,3.47
2019-04-13T03:22:56.538Z,3.43
2019-04-13T03:25:24.183Z,3.38
2019-04-13T03:27:51.829Z,3.37
2019-04-13T03:30:22.814Z,3.48
2019-04-13T03:32:50.452Z,3.52
2019-04-13T03:35:18.115Z,3.59
2019-04-13T03:37:45.763Z,3.57
2019-04-13T03:40:13.646Z,3.58
2019-04-13T03:42:41.327Z,3.57
2019-04-13T03:45:08.975Z,3.55
2019-04-13T03:47:36.628Z,3.64
2019-04-13T03:50:04.286Z,3.26
2019-04-13T03:52:31.939Z,3.43
2019-04-13T03:54:59.595Z,3.45
2019-04-13T03:57:27.315Z,3.44
2019-04-13T03:59:54.958Z,3.53
2019-04-13T04:02:22.616Z,3.51
2019-04-13T04:04:50.265Z,3.31
2019-04-13T04:07:17.920Z,3.30
2019-04-13T04:09:45.570Z,3.41
2019-04-13T04:12:13.232Z,3.40
2019-04-13T04:14:40.918Z,3.31
2019-04-13T04:17:08.643Z,3.48
2019-04-13T04:19:36.287Z,3.50
2019-04-13T04:22:03.938Z,3.50
2019-04-13T04:24:31.588Z,3.43
2019-04-13T04:26:59.276Z,3.21
2019-04-13T04:29:26.936Z,3.36
2019-04-13T04:31:54.627Z,3.40
2019-04-13T04:34:22.283Z,3.41
2019-04-13T04:36:49.944Z,3.21
2019-04-13T04:39:17.583Z,3.27
2019-04-13T04:41:45.334Z,3.40
2019-04-13T04:44:13.061Z,3.61
2019-04-13T04:46:40.747Z,3.55
2019-04-13T04:49:08.484Z,3.53
2019-04-13T04:51:36.139Z,3.53
2019-04-13T04:54:03.805Z,3.47
2019-04-13T04:56:31.467Z,3.53
2019-04-13T04:58:59.126Z,3.52
2019-04-13T05:01:26.798Z,3.35
2019-04-13T05:03:54.439Z,3.36
2019-04-13T05:06:22.107Z,3.46
2019-04-13T05:08:49.830Z,3.45
2019-04-13T05:11:17.607Z,3.54
2019-04-13T05:13:45.269Z,3.59
2019-04-13T05:16:12.931Z,3.53
2019-04-13T05:18:40.596Z,3.48
2019-04-13T05:21:08.410Z,3.45
2019-04-13T05:23:36.067Z,3.57
2019-04-13T05:26:03.716Z,3.62
2019-04-13T05:28:31.378Z,3.74
2019-04-13T05:30:59.038Z,3.67
2019-04-13T05:33:26.691Z,3.65
2019-04-13T05:35:54.354Z,3.84
2019-04-13T05:38:22.019Z,3.80
2019-04-13T05:40:49.685Z,3.66
2019-04-13T05:43:17.350Z,3.64
2019-04-13T05:45:45.099Z,3.50
2019-04-13T05:48:12.764Z,3.52
2019-04-13T05:50:40.414Z,3.52
2019-04-13T05:53:08.068Z,3.67
2019-04-13T05:55:35.717Z,3.90
2019-04-13T05:58:03.383Z,3.96
2019-04-13T06:00:31.035Z,3.81
2019-04-13T06:02:58.688Z,3.89
2019-04-13T06:05:26.392Z,3.99
2019-04-13T06:07:54.097Z,4.10
2019-04-13T06:10:21.747Z,4.10
2019-04-13T06:12:53.397Z,3.95
2019-04-13T06:15:18.751Z,3.98
2019-04-13T06:17:46.407Z,4.16
2019-04-13T06:20:15.323Z,4.35
2019-04-13T06:22:46.889Z,4.41
2019-04-13T06:25:12.552Z,4.40
2019-04-13T06:27:42.187Z,4.15
2019-04-13T06:30:32.683Z,4.02
2019-04-13T06:33:06.594Z,4.23
2019-04-13T06:35:34.344Z,4.19
2019-04-13T06:38:01.996Z,4.29
2019-04-13T06:40:29.639Z,4.44
2019-04-13T06:42:57.300Z,4.50
2019-04-13T06:45:25.143Z,4.59
2019-04-13T06:47:52.803Z,4.58
2019-04-13T06:50:20.462Z,4.69
2019-04-13T06:52:48.115Z,4.63
2019-04-13T06:55:16.252Z,4.75
2019-04-13T06:57:44.611Z,4.81
2019-04-13T07:00:12.263Z,4.87
2019-04-13T07:02:39.919Z,5.01
2019-04-13T07:05:07.575Z,5.01
2019-04-13T07:07:45.881Z,5.15
2019-04-13T07:10:17.343Z,5.13
2019-04-13T07:12:56.011Z,5.00
2019-04-13T07:15:24.799Z,4.98
2019-04-13T07:17:52.455Z,5.08
2019-04-13T07:20:20.104Z,5.40
2019-04-13T07:22:47.759Z,5.37
2019-04-13T07:25:15.423Z,5.23
2019-04-13T07:27:43.223Z,5.51
2019-04-13T07:30:13.798Z,5.16
2019-04-13T07:32:40.270Z,5.23
2019-04-13T07:35:09.580Z,5.43
2019-04-13T07:37:37.452Z,5.65
2019-04-13T07:40:05.171Z,6.00
2019-04-13T07:42:32.900Z,5.81
2019-04-13T07:45:09.629Z,5.94
2019-04-13T07:47:56.431Z,6.01
2019-04-13T07:50:29.387Z,6.21
2019-04-13T07:52:58.088Z,6.54
2019-04-13T07:55:25.919Z,6.69
2019-04-13T07:57:53.621Z,6.69
2019-04-13T08:00:21.665Z,6.37
2019-04-13T08:02:49.461Z,6.47
2019-04-13T08:05:17.283Z,6.56
2019-04-13T08:07:50.093Z,6.47
2019-04-13T08:10:15.020Z,6.32
2019-04-13T08:12:42.876Z,6.67
2019-04-13T08:15:10.932Z,6.72
2019-04-13T08:17:38.868Z,6.82
2019-04-13T08:20:12.003Z,6.89
2019-04-13T08:22:39.847Z,6.89
2019-04-13T08:25:07.497Z,6.68
2019-04-13T08:27:35.312Z,6.81
2019-04-13T08:30:03.172Z,6.86
2019-04-13T08:32:34.965Z,6.94
2019-04-13T08:35:00.200Z,6.66
2019-04-13T08:37:27.849Z,6.82
2019-04-13T08:40:02.182Z,6.25
2019-04-13T08:42:27.125Z,6.41
2019-04-13T08:44:54.278Z,6.58
2019-04-13T08:47:21.925Z,6.56
2019-04-13T08:49:49.615Z,6.88
2019-04-13T08:52:17.405Z,6.82
2019-04-13T08:54:45.129Z,7.06
2019-04-13T08:57:12.780Z,7.08
2019-04-13T08:59:40.438Z,7.34
2019-04-13T09:02:08.099Z,7.11
2019-04-13T09:04:35.784Z,7.19
2019-04-13T09:07:03.441Z,7.44
2019-04-13T09:09:35.524Z,7.47
2019-04-13T09:12:05.119Z,7.98
2019-04-13T09:14:30.682Z,8.34
2019-04-13T09:17:00.014Z,8.75
2019-04-13T09:19:43.871Z,8.17
2019-04-13T09:22:16.809Z,7.96
2019-04-13T09:24:44.530Z,8.41
2019-04-13T09:27:12.193Z,8.49
2019-04-13T09:29:39.839Z,8.25
2019-04-13T09:32:07.490Z,8.86
2019-04-13T09:34:35.200Z,9.06
2019-04-13T09:37:02.917Z,8.72
2019-04-13T09:39:30.587Z,8.68
2019-04-13T09:41:58.227Z,8.50
2019-04-13T09:44:31.646Z,8.04
2019-04-13T09:47:00.900Z,8.45
2019-04-13T09:49:28.555Z,8.85
2019-04-13T09:52:00.028Z,8.30
2019-04-13T09:54:25.591Z,8.43
2019-04-13T09:56:53.253Z,8.29
2019-04-13T09:59:20.899Z,8.19
2019-04-13T10:01:48.556Z,8.40
2019-04-13T10:04:16.211Z,8.77
2019-04-13T10:06:43.850Z,8.65
2019-04-13T10:09:11.491Z,8.78
2019-04-13T10:11:45.803Z,8.48
2019-04-13T10:14:22.580Z,8.25
2019-04-13T10:16:56.714Z,8.25
2019-04-13T10:19:24.379Z,8.09
2019-04-13T10:21:52.039Z,8.65
2019-04-13T10:24:21.384Z,8.53
2019-04-13T10:26:49.107Z,8.88
2019-04-13T10:29:19.369Z,8.64
2019-04-13T10:31:46.203Z,8.63
2019-04-13T10:34:13.891Z,8.83
2019-04-13T10:36:41.539Z,9.04
2019-04-13T10:39:10.096Z,9.00
2019-04-13T10:41:37.747Z,9.20
2019-04-13T10:44:07.898Z,8.82
2019-04-13T10:46:54.167Z,8.68
2019-04-13T10:49:27.544Z,8.64
2019-04-13T10:51:59.915Z,8.88
2019-04-13T10:54:27.571Z,8.75
2019-04-13T10:56:55.208Z,8.64
2019-04-13T10:59:22.875Z,8.28
2019-04-13T11:01:50.527Z,8.72
2019-04-13T11:04:18.183Z,9.06
2019-04-13T11:06:45.835Z,8.81
2019-04-13T11:09:21.303Z,9.18
2019-04-13T11:11:42.839Z,9.03
2019-04-13T11:14:10.483Z,9.23
2019-04-13T11:16:38.224Z,9.16
2019-04-13T11:19:07.830Z,9.19
2019-04-13T11:21:35.257Z,9.02
2019-04-13T11:24:02.903Z,8.98
2019-04-13T11:26:30.586Z,8.70
2019-04-13T11:28:58.316Z,8.63
2019-04-13T11:31:26.051Z,9.04
2019-04-13T11:33:53.779Z,8.93
2019-04-13T11:36:21.443Z,9.48
2019-04-13T11:38:49.092Z,9.10
2019-04-13T11:41:36.748Z,9.23
2019-04-13T11:44:09.603Z,9.04
2019-04-13T11:46:44.176Z,9.15
2019-04-13T11:49:14.669Z,9.21
2019-04-13T11:51:42.320Z,9.12
2019-04-13T11:54:09.987Z,9.28
2019-04-13T11:56:38.111Z,9.42
2019-04-13T11:59:05.894Z,9.39
2019-04-13T12:01:38.826Z,9.31
2019-04-13T12:04:18.482Z,9.39
2019-04-13T12:06:56.192Z,9.04
2019-04-13T12:09:49.657Z,8.95
2019-04-13T12:12:16.194Z,8.48
2019-04-13T12:14:51.602Z,8.78
2019-04-13T12:17:23.939Z,8.83
2019-04-13T12:19:56.236Z,8.88
2019-04-13T12:22:27.289Z,8.90
2019-04-13T12:24:54.977Z,8.85
2019-04-13T12:27:22.714Z,8.73
2019-04-13T12:29:50.366Z,9.05
2019-04-13T12:32:23.648Z,9.20
2019-04-13T12:34:49.769Z,8.88
2019-04-13T12:37:17.532Z,9.15
2019-04-13T12:39:46.614Z,9.12
2019-04-13T12:42:14.334Z,9.24
2019-04-13T12:44:41.983Z,8.72
2019-04-13T12:47:13.625Z,8.61
2019-04-13T12:49:41.279Z,8.75
2019-04-13T12:52:09.069Z,8.59
2019-04-13T12:54:37.467Z,8.63
2019-04-13T12:57:05.678Z,8.76
2019-04-13T12:59:36.140Z,8.62
2019-04-13T13:02:07.929Z,8.66
2019-04-13T13:04:43.416Z,8.77
2019-04-13T13:07:11.116Z,8.75
2019-04-13T13:09:40.151Z,9.08
2019-04-13T13:12:08.209Z,8.81
2019-04-13T13:14:35.866Z,8.90
2019-04-13T13:17:03.522Z,8.54
2019-04-13T13:19:31.173Z,8.68
2019-04-13T13:21:58.883Z,8.91
2019-04-13T13:24:26.660Z,9.21
2019-04-13T13:26:54.323Z,9.15
2019-04-13T13:29:22.354Z,9.10
2019-04-13T13:31:50.219Z,9.14
2019-04-13T13:34:17.876Z,9.13
2019-04-13T13:36:45.521Z,9.06
2019-04-13T13:39:13.984Z,9.05
2019-04-13T13:41:41.815Z,9.11
2019-04-13T13:44:09.467Z,8.86
2019-04-13T13:46:37.324Z,8.56
2019-04-13T13:49:04.967Z,8.55
2019-04-13T13:51:32.631Z,8.33
2019-04-13T13:54:00.320Z,8.44
2019-04-13T13:56:30.409Z,8.68
2019-04-13T13:59:03.707Z,8.84
2019-04-13T14:01:35.687Z,8.88
2019-04-13T14:04:03.334Z,8.72
2019-04-13T14:06:31.011Z,8.66
2019-04-13T14:08:58.675Z,8.79
2019-04-13T14:11:26.322Z,9.01
2019-04-13T14:13:53.991Z,8.91
2019-04-13T14:16:21.656Z,9.07
2019-04-13T14:18:49.298Z,8.78
2019-04-13T14:21:16.946Z,8.53
2019-04-13T14:23:44.603Z,8.88
2019-04-13T14:26:12.257Z,8.95
2019-04-13T14:28:39.905Z,8.59
2019-04-13T14:31:07.715Z,8.70
2019-04-13T14:33:35.375Z,8.69
2019-04-13T14:36:03.119Z,8.64
2019-04-13T14:38:30.790Z,8.58
2019-04-13T14:40:58.430Z,8.70
2019-04-13T14:43:31.337Z,8.40
2019-04-13T14:45:59.656Z,8.56
2019-04-13T14:48:28.143Z,8.50
2019-04-13T14:50:55.787Z,8.34
2019-04-13T14:53:23.451Z,8.24
2019-04-13T14:55:51.120Z,8.18
2019-04-13T14:58:18.771Z,8.28
2019-04-13T15:00:46.497Z,8.08
2019-04-13T15:03:14.223Z,8.17
2019-04-13T15:05:41.888Z,8.09
2019-04-13T15:08:10.745Z,8.31
2019-04-13T15:10:38.991Z,8.25
2019-04-13T15:13:06.672Z,8.38
2019-04-13T15:15:39.337Z,8.37
2019-04-13T15:18:15.520Z,8.35
2019-04-13T15:20:45.963Z,8.02
2019-04-13T15:23:12.204Z,8.00
2019-04-13T15:25:40.240Z,8.02
2019-04-13T15:28:08.217Z,7.95
2019-04-13T15:30:36.034Z,7.87
2019-04-13T15:33:06.811Z,7.86
2019-04-13T15:35:33.044Z,7.92
2019-04-13T15:38:00.695Z,8.09
2019-04-13T15:40:31.399Z,8.11
2019-04-13T15:43:03.380Z,8.18
2019-04-13T15:45:27.583Z,8.17
2019-04-13T15:47:55.611Z,8.02
2019-04-13T15:50:24.020Z,7.87
2019-04-13T15:52:51.811Z,7.91
2019-04-13T15:55:19.458Z,7.88
2019-04-13T15:57:47.130Z,7.94
2019-04-13T16:00:16.823Z,7.94
2019-04-13T16:02:45.655Z,7.98
2019-04-13T16:05:13.791Z,7.90
2019-04-13T16:07:41.591Z,8.04
2019-04-13T16:10:28.988Z,8.14
2019-04-13T16:13:00.302Z,8.13
2019-04-13T16:15:31.463Z,8.13
2019-04-13T16:18:00.209Z,8.07
2019-04-13T16:20:29.401Z,7.97
2019-04-13T16:22:57.904Z,7.77
2019-04-13T16:25:27.051Z,7.73
2019-04-13T16:28:06.139Z,7.79
2019-04-13T16:30:55.510Z,7.77
2019-04-13T16:33:34.935Z,7.60
2019-04-13T16:36:10.604Z,7.66
2019-04-13T16:38:52.519Z,7.66
2019-04-13T16:41:08.630Z,7.58
2019-04-13T16:43:39.473Z,7.65
2019-04-13T16:46:13.997Z,7.58
2019-04-13T16:49:01.092Z,7.71
2019-04-13T16:51:25.108Z,7.56
2019-04-13T16:54:01.766Z,7.48
2019-04-13T16:56:33.697Z,7.52
2019-04-13T16:59:07.837Z,7.52
2019-04-13T17:01:43.935Z,7.45
2019-04-13T17:04:17.261Z,7.46
2019-04-13T17:06:46.058Z,7.45
2019-04-13T17:09:14.271Z,7.44
2019-04-13T17:11:42.006Z,7.44
2019-04-13T17:14:09.766Z,7.43
2019-04-13T17:16:38.368Z,7.44
2019-04-13T17:19:13.336Z,7.44
2019-04-13T17:21:47.995Z,7.37
2019-04-13T17:24:22.060Z,7.36
2019-04-13T17:27:05.103Z,7.26
2019-04-13T17:29:38.126Z,7.32
2019-04-13T17:32:17.131Z,7.28
2019-04-13T17:34:52.734Z,7.19
2019-04-13T17:37:21.264Z,7.19
2019-04-13T17:39:49.070Z,7.10
2019-04-13T17:42:35.323Z,7.14
2019-04-13T17:45:04.761Z,7.03
2019-04-13T17:47:42.964Z,7.04
2019-04-13T17:50:22.380Z,7.00
2019-04-13T17:53:00.015Z,6.92
2019-04-13T17:55:37.363Z,6.91
2019-04-13T17:58:21.038Z,6.89
2019-04-13T18:01:08.227Z,6.89
2019-04-13T18:03:49.328Z,6.86
2019-04-13T18:06:22.156Z,6.76
2019-04-13T18:09:01.899Z,6.75
2019-04-13T18:11:49.112Z,6.74
2019-04-13T18:14:28.215Z,6.74
2019-04-13T18:17:03.065Z,6.66
2019-04-13T18:19:30.877Z,6.60
2019-04-13T18:21:59.935Z,6.52
2019-04-13T18:24:28.463Z,6.30
2019-04-13T18:26:56.498Z,6.38
2019-04-13T18:29:24.246Z,6.31
2019-04-13T18:31:52.325Z,6.35
2019-04-13T18:34:20.404Z,6.35
2019-04-13T18:36:50.429Z,6.29
2019-04-13T18:39:19.036Z,6.35
2019-04-13T18:41:47.510Z,6.28
2019-04-13T18:44:16.370Z,6.33
2019-04-13T18:46:44.851Z,6.14
2019-04-13T18:49:13.801Z,6.08
2019-04-13T18:51:42.023Z,6.03
2019-04-13T18:54:09.739Z,5.97
2019-04-13T18:56:37.603Z,6.06
2019-04-13T18:59:06.474Z,6.08
2019-04-13T19:01:34.467Z,6.06
2019-04-13T19:04:02.231Z,5.90
2019-04-13T19:06:29.885Z,5.90
2019-04-13T19:08:57.543Z,5.94
2019-04-13T19:11:25.187Z,5.87
2019-04-13T19:13:52.844Z,5.92
2019-04-13T19:16:20.487Z,5.91
2019-04-13T19:18:48.141Z,5.94
2019-04-13T19:21:15.798Z,5.85
2019-04-13T19:23:43.447Z,5.73
2019-04-13T19:26:11.095Z,5.74
2019-04-13T19:28:38.786Z,5.76
2019-04-13T19:31:06.444Z,5.75
2019-04-13T19:33:34.152Z,5.69
2019-04-13T19:36:01.799Z,5.67
2019-04-13T19:38:29.443Z,5.68
2019-04-13T19:40:57.102Z,5.63
2019-04-13T19:43:24.777Z,5.57
2019-04-13T19:45:52.443Z,5.55
2019-04-13T19:48:20.168Z,5.46
2019-04-13T19:50:47.895Z,5.58
2019-04-13T19:53:36.663Z,5.71
2019-04-13T19:56:09.003Z,5.64
2019-04-13T19:58:36.693Z,5.61
2019-04-13T20:01:04.455Z,5.61
2019-04-13T20:03:32.145Z,5.61
2019-04-13T20:05:59.797Z,5.56
2019-04-13T20:08:27.451Z,5.52
2019-04-13T20:10:55.099Z,5.50
2019-04-13T20:13:33.874Z,5.51
2019-04-13T20:15:53.046Z,5.40
2019-04-13T20:18:21.194Z,5.28
2019-04-13T20:20:48.983Z,5.12
2019-04-13T20:23:16.651Z,4.96
2019-04-13T20:25:44.307Z,4.89
2019-04-13T20:28:12.028Z,4.91
2019-04-13T20:30:39.683Z,4.77
2019-04-13T20:33:07.331Z,4.70
2019-04-13T20:35:34.988Z,4.68
2019-04-13T20:38:02.634Z,4.61
2019-04-13T20:40:36.167Z,4.53
2019-04-13T20:43:03.862Z,4.61
2019-04-13T20:45:31.600Z,4.47
2019-04-13T20:48:00.730Z,4.33
2019-04-13T20:50:29.527Z,4.29
2019-04-13T20:52:57.240Z,4.25
2019-04-13T20:55:26.121Z,4.39
2019-04-13T20:57:54.498Z,4.31
2019-04-13T21:00:22.471Z,4.18
2019-04-13T21:02:50.486Z,4.03
2019-04-13T21:05:18.601Z,4.27
2019-04-13T21:07:46.638Z,4.12
2019-04-13T21:10:14.399Z,4.34
2019-04-13T21:12:42.050Z,4.33
2019-04-13T21:15:09.777Z,4.37
2019-04-13T21:17:37.536Z,4.13
2019-04-13T21:20:05.569Z,4.17
2019-04-13T21:22:33.542Z,4.18
2019-04-13T21:25:01.345Z,3.80
2019-04-13T21:27:29.262Z,3.96
2019-04-13T21:29:57.084Z,3.87
2019-04-13T21:32:24.761Z,3.89
2019-04-13T21:34:52.624Z,3.90
2019-04-13T21:37:20.562Z,3.89
2019-04-13T21:39:48.400Z,3.88
2019-04-13T21:42:16.135Z,3.94
2019-04-13T21:44:46.669Z,3.71
2019-04-13T21:47:14.157Z,3.67
2019-04-13T21:49:42.635Z,3.94
2019-04-13T21:52:16.943Z,4.37
2019-04-13T21:54:45.348Z,3.96
2019-04-13T21:57:13.362Z,4.03
2019-04-13T21:59:41.301Z,4.02
2019-04-13T22:02:18.487Z,3.91
2019-04-13T22:04:46.148Z,3.83
2019-04-13T22:07:13.795Z,3.77
2019-04-13T22:09:41.439Z,3.95
2019-04-13T22:12:09.147Z,3.95
2019-04-13T22:14:46.355Z,3.93
2019-04-13T22:17:07.383Z,3.85
2019-04-13T22:19:35.501Z,3.72
2019-04-13T22:22:03.464Z,3.82
2019-04-13T22:24:31.248Z,3.64
2019-04-13T22:26:58.895Z,3.91
2019-04-13T22:29:36.069Z,3.96
2019-04-13T22:32:23.175Z,3.94
2019-04-13T22:34:57.396Z,3.80
2019-04-13T22:37:25.579Z,3.82
2019-04-13T22:39:53.353Z,3.80
2019-04-13T22:42:21.004Z,3.67
2019-04-13T22:44:56.169Z,3.72
2019-04-13T22:47:20.972Z,3.95
2019-04-13T22:49:58.168Z,4.02
2019-04-13T22:52:38.854Z,3.86
2019-04-13T22:55:14.353Z,3.97
2019-04-13T22:57:43.483Z,3.91
2019-04-13T23:00:17.184Z,4.07
2019-04-13T23:02:49.605Z,4.11
2019-04-13T23:05:17.653Z,4.07
2019-04-13T23:07:45.739Z,4.16
2019-04-13T23:10:13.615Z,4.22
2019-04-13T23:12:42.124Z,4.19
2019-04-13T23:15:19.461Z,4.24
2019-04-13T23:17:39.864Z,4.29
2019-04-13T23:20:08.225Z,4.27
2019-04-13T23:22:36.331Z,4.01
2019-04-13T23:25:05.052Z,3.92
2019-04-13T23:27:33.050Z,4.12
2019-04-13T23:30:00.940Z,4.09
2019-04-13T23:32:29.174Z,4.20
2019-04-13T23:34:59.682Z,4.28
2019-04-13T23:37:26.241Z,4.32
2019-04-13T23:39:54.161Z,4.35
2019-04-13T23:42:22.220Z,4.42
2019-04-13T23:44:50.716Z,4.35
2019-04-13T23:47:19.332Z,4.43
2019-04-13T23:49:47.168Z,4.41
2019-04-13T23:52:15.304Z,4.31
2019-04-13T23:54:52.243Z,4.26
2019-04-13T23:57:29.935Z,4.28
